Terminal Aerodrome Forecast
Issued by NWS

Home | Current Version | Previous Version | Text Only | Print | Product List | Glossary On
Versions: 1 2 3 4 5 6 7 8 9 10 11 12 13 14 15 16 17 18 19 20 21 22 23 24 25
000
FTUS45 KSLC 211145
TAFEVW
TAF
KEVW 211145Z 2112/2212 22018G28KT P6SM SCT030 BKN050
     FM211500 24025G36KT P6SM SCT060 BKN100
     FM220100 27013KT 1SM -SN BR SCT005 BKN015
     FM220600 25010KT 4SM -SN OVC003=

USA.gov is the U.S. government's official web portal to all federal, state and local government web resources and services.